Argo Village, New York
Current Conditions -  °F | °C
As of 11:51 AM on Thursday 23 Oct 2014 (Local Time) from KJFK Reporting Station
Overcast Overcast  
Wind Chill: 52°   Ceiling: 2500
Heat Index: 52°   Visibility: 10mi
Dew Point: 46°   Wind: 26mph
Humidity: 80%   Direction: 340°NNW
Pressure: 29.7"   Gusts: 32mph
Location:  40.7013°N, 73.7074°W
Report Text: KJFK 231551Z 34023G28KT 10SM SCT017 BKN025 OVC070 11/08 A2970 RMK AO2 PK WND 34029/1519 RAE22 SLP058 P0000 T01110078
Loading
Personal Weather Stations






























Interactive Weather Map New forecast layout! Learn more

10-Day Weather Forecast

Advertisements
Track Severe Weather on mobile